createdAt,value
2023-02-18T00:16:20.624Z,3.60
2023-02-18T00:21:22.816Z,3.20
2023-02-18T00:26:24.610Z,2.40
2023-02-18T00:31:30.905Z,1.90
2023-02-18T00:36:35.165Z,3.60
2023-02-18T00:41:37.157Z,2.30
2023-02-18T00:46:39.715Z,2.20
2023-02-18T00:51:41.639Z,3.20
2023-02-18T00:56:43.369Z,3.30
2023-02-18T01:01:45.300Z,3.00
2023-02-18T01:06:47.045Z,3.20
2023-02-18T01:11:48.787Z,4.30
2023-02-18T01:16:51.225Z,2.90
2023-02-18T01:21:52.874Z,3.30
2023-02-18T01:26:54.660Z,3.30
2023-02-18T01:31:56.421Z,1.60
2023-02-18T01:36:58.101Z,1.70
2023-02-18T01:41:59.852Z,2.70
2023-02-18T01:47:01.576Z,2.20
2023-02-18T01:52:12.183Z,1.50
2023-02-18T01:57:32.875Z,1.30
2023-02-18T02:02:39.253Z,2.10
2023-02-18T02:07:42.757Z,4.70
2023-02-18T02:13:16.783Z,2.10
2023-02-18T02:18:24.424Z,1.90
2023-02-18T02:23:40.597Z,1.90
2023-02-18T02:29:26.756Z,4.30
2023-02-18T02:34:31.246Z,2.10
2023-02-18T02:39:56.706Z,4.20
2023-02-18T02:45:13.167Z,5.80
2023-02-18T02:50:23.002Z,2.30
2023-02-18T02:55:24.855Z,3.20
2023-02-18T03:00:52.158Z,3.00
2023-02-18T03:06:11.130Z,3.30
2023-02-18T03:11:15.843Z,7.40
2023-02-18T03:16:26.698Z,5.20
2023-02-18T03:21:45.686Z,3.90
2023-02-18T03:26:52.616Z,3.30
2023-02-18T03:32:00.291Z,2.90
2023-02-18T03:37:02.745Z,2.30
2023-02-18T03:42:06.089Z,2.20
2023-02-18T03:47:08.602Z,1.40
2023-02-18T03:52:11.522Z,1.50
2023-02-18T03:57:13.188Z,2.70
2023-02-18T04:02:14.857Z,0.90
2023-02-18T04:07:16.554Z,2.70
2023-02-18T04:12:18.214Z,3.00
2023-02-18T04:17:19.930Z,3.00
2023-02-18T04:22:21.625Z,4.50
2023-02-18T04:27:23.368Z,2.50
2023-02-18T04:32:25.525Z,2.00
2023-02-18T04:37:27.239Z,1.90
2023-02-18T04:42:28.907Z,1.40
2023-02-18T04:47:30.569Z,2.40
2023-02-18T04:52:32.217Z,1.60
2023-02-18T04:57:33.919Z,2.50
2023-02-18T05:02:35.614Z,1.90
2023-02-18T05:07:37.459Z,1.10
2023-02-18T05:12:39.239Z,3.10
2023-02-18T05:17:41.021Z,1.80
2023-02-18T05:22:43.113Z,2.70
2023-02-18T05:27:44.834Z,2.30
2023-02-18T05:32:46.578Z,0.60
2023-02-18T05:37:48.332Z,1.10
2023-02-18T05:42:50.082Z,1.20
2023-02-18T05:47:51.822Z,1.00
2023-02-18T05:52:53.685Z,0.30
2023-02-18T05:57:55.414Z,2.00
2023-02-18T06:02:57.861Z,2.00
2023-02-18T06:07:59.542Z,4.00
2023-02-18T06:18:04.784Z,2.00
2023-02-18T06:23:07.608Z,2.40
2023-02-18T06:28:09.870Z,2.50
2023-02-18T06:33:12.034Z,2.00
2023-02-18T06:38:13.725Z,2.20
2023-02-18T06:43:15.581Z,1.30
2023-02-18T06:48:17.867Z,0.80
2023-02-18T06:53:19.599Z,3.00
2023-02-18T06:58:23.314Z,2.40
2023-02-18T07:03:25.018Z,3.10
2023-02-18T07:08:27.346Z,5.30
2023-02-18T07:13:29.107Z,2.50
2023-02-18T07:18:30.831Z,2.70
2023-02-18T07:23:32.591Z,1.50
2023-02-18T07:28:34.364Z,4.10
2023-02-18T07:33:36.426Z,2.90
2023-02-18T07:38:38.157Z,2.60
2023-02-18T07:43:39.929Z,2.70
2023-02-18T07:48:41.667Z,2.70
2023-02-18T07:53:49.750Z,3.10
2023-02-18T07:58:51.392Z,3.00
2023-02-18T08:03:53.328Z,4.00
2023-02-18T08:08:55.029Z,3.30
2023-02-18T08:13:56.917Z,1.80
2023-02-18T08:18:59.045Z,3.90
2023-02-18T08:24:00.815Z,3.40
2023-02-18T08:29:03.067Z,10.70
2023-02-18T08:34:04.849Z,7.90
2023-02-18T08:39:06.619Z,14.60
2023-02-18T08:44:12.591Z,14.60
2023-02-18T08:49:14.252Z,2.60
2023-02-18T08:54:16.548Z,4.90
2023-02-18T08:59:18.195Z,4.20
2023-02-18T09:04:21.309Z,6.40
2023-02-18T09:09:23.558Z,5.10
2023-02-18T09:14:25.718Z,6.30
2023-02-18T09:19:27.396Z,8.40
2023-02-18T09:24:29.084Z,6.80
2023-02-18T09:29:30.760Z,12.40
2023-02-18T09:34:32.702Z,5.70
2023-02-18T09:39:34.376Z,6.40
2023-02-18T09:44:43.423Z,7.80
2023-02-18T09:49:48.940Z,7.80
2023-02-18T09:54:52.050Z,6.00
2023-02-18T10:00:11.907Z,4.50
2023-02-18T10:05:15.710Z,2.80
2023-02-18T10:10:31.206Z,7.80
2023-02-18T10:15:33.893Z,3.00
2023-02-18T10:20:35.629Z,4.30
2023-02-18T10:25:43.144Z,4.40
2023-02-18T10:31:02.233Z,4.80
2023-02-18T10:36:21.464Z,7.60
2023-02-18T10:41:48.089Z,7.20
2023-02-18T10:47:17.511Z,6.90
2023-02-18T10:52:20.272Z,4.30
2023-02-18T10:57:24.104Z,5.70
2023-02-18T11:02:32.559Z,0.90
2023-02-18T11:07:38.207Z,2.70
2023-02-18T11:12:49.869Z,9.80
2023-02-18T11:23:08.265Z,8.30
2023-02-18T11:28:12.822Z,3.50
2023-02-18T11:33:32.944Z,4.30
2023-02-18T11:38:41.933Z,6.60
2023-02-18T11:43:51.024Z,9.80
2023-02-18T11:48:53.676Z,5.10
2023-02-18T11:54:00.193Z,18.50
2023-02-18T11:59:04.214Z,21.70
2023-02-18T12:04:12.905Z,26.50
2023-02-18T12:09:31.605Z,38.40
2023-02-18T12:14:33.558Z,25.60
2023-02-18T12:19:57.550Z,32.40
2023-02-18T12:25:17.879Z,16.70
2023-02-18T12:30:59.429Z,15.60
2023-02-18T12:36:01.195Z,20.50
2023-02-18T12:41:44.858Z,42.20
2023-02-18T12:46:49.647Z,37.40
2023-02-18T12:51:51.262Z,30.30
2023-02-18T13:02:43.168Z,33.20
2023-02-18T13:08:01.721Z,39.90
2023-02-18T13:13:15.907Z,33.20
2023-02-18T13:18:26.568Z,39.00
2023-02-18T13:23:34.259Z,63.60
2023-02-18T13:28:46.915Z,56.90
2023-02-18T13:34:26.696Z,72.40
2023-02-18T13:39:36.050Z,50.30
2023-02-18T13:44:55.684Z,54.70
2023-02-18T13:49:57.544Z,52.50
2023-02-18T13:54:59.428Z,41.60
2023-02-18T14:00:17.610Z,44.70
2023-02-18T14:05:24.776Z,50.00
2023-02-18T14:10:33.389Z,50.40
2023-02-18T14:15:35.183Z,42.40
2023-02-18T14:20:36.905Z,35.90
2023-02-18T14:25:41.728Z,41.30
2023-02-18T14:30:43.516Z,36.90
2023-02-18T14:35:59.030Z,32.90
2023-02-18T14:41:13.331Z,74.70
2023-02-18T14:46:26.518Z,51.80
2023-02-18T14:51:31.803Z,56.70
2023-02-18T14:56:39.486Z,61.70
2023-02-18T15:01:41.319Z,56.30
2023-02-18T15:06:43.145Z,48.30
2023-02-18T15:11:55.084Z,66.00
2023-02-18T15:17:13.995Z,70.00
2023-02-18T15:22:24.809Z,68.00
2023-02-18T15:27:30.038Z,63.80
2023-02-18T15:32:33.128Z,64.00
2023-02-18T15:37:34.864Z,70.20
2023-02-18T15:42:37.715Z,64.20
2023-02-18T15:47:47.965Z,50.30
2023-02-18T15:52:51.863Z,38.70
2023-02-18T15:57:54.850Z,43.80
2023-02-18T16:03:05.159Z,28.60
2023-02-18T16:08:15.178Z,24.20
2023-02-18T16:13:18.643Z,31.30
2023-02-18T16:18:35.243Z,31.30
2023-02-18T16:23:43.863Z,22.40
2023-02-18T16:28:45.988Z,18.80
2023-02-18T16:33:49.519Z,21.60
2023-02-18T16:38:51.395Z,13.90
2023-02-18T16:43:54.092Z,12.20
2023-02-18T16:48:56.913Z,12.70
2023-02-18T16:53:59.210Z,9.10
2023-02-18T16:59:01.191Z,9.20
2023-02-18T17:04:06.165Z,6.90
2023-02-18T17:09:21.391Z,9.00
2023-02-18T17:14:23.601Z,8.00
2023-02-18T17:19:25.395Z,6.00
2023-02-18T17:24:27.111Z,5.60
2023-02-18T17:29:28.763Z,6.90
2023-02-18T17:34:32.646Z,5.30
2023-02-18T17:39:34.667Z,5.10
2023-02-18T17:44:37.333Z,4.40
2023-02-18T17:49:39.209Z,4.00
2023-02-18T17:54:40.962Z,4.10
2023-02-18T17:59:42.664Z,3.90
2023-02-18T18:04:44.335Z,6.40
2023-02-18T18:09:46.143Z,6.90
2023-02-18T18:14:47.799Z,6.00
2023-02-18T18:19:49.478Z,7.20
2023-02-18T18:24:51.173Z,6.10
2023-02-18T18:29:53.271Z,5.00
2023-02-18T18:34:55.019Z,4.70
2023-02-18T18:39:56.693Z,7.50
2023-02-18T18:44:58.467Z,15.70
2023-02-18T18:50:00.219Z,3.00
2023-02-18T18:55:02.171Z,7.00
2023-02-18T19:00:04.286Z,7.70
2023-02-18T19:05:06.109Z,2.10
2023-02-18T19:10:08.065Z,4.10
2023-02-18T19:15:15.273Z,2.40
2023-02-18T19:20:21.929Z,2.90
2023-02-18T19:25:24.169Z,3.70
2023-02-18T19:30:31.913Z,5.30
2023-02-18T19:35:33.775Z,2.60
2023-02-18T19:40:36.154Z,4.10
2023-02-18T19:45:44.164Z,3.20
2023-02-18T19:50:45.948Z,4.90
2023-02-18T19:56:02.272Z,6.80
2023-02-18T20:01:04.905Z,1.10
2023-02-18T20:06:07.252Z,4.40
2023-02-18T20:11:09.354Z,2.60
2023-02-18T20:16:12.208Z,2.60
2023-02-18T20:21:14.130Z,2.70
2023-02-18T20:26:16.371Z,1.90
2023-02-18T20:31:18.569Z,2.80
2023-02-18T20:36:21.139Z,2.40
2023-02-18T20:41:34.484Z,4.80
2023-02-18T20:46:38.806Z,7.10
2023-02-18T20:51:41.701Z,7.70
2023-02-18T20:56:43.933Z,4.10
2023-02-18T21:01:47.303Z,3.20
2023-02-18T21:06:50.590Z,4.00
2023-02-18T21:11:53.588Z,4.00
2023-02-18T21:16:55.403Z,1.90
2023-02-18T21:21:57.397Z,1.60
2023-02-18T21:26:59.229Z,1.90
2023-02-18T21:32:01.146Z,1.20
2023-02-18T21:37:03.106Z,1.70
2023-02-18T21:42:06.848Z,0.50
2023-02-18T21:47:08.622Z,1.70
2023-02-18T21:52:10.373Z,0.90
2023-02-18T21:57:18.304Z,2.70
2023-02-18T22:02:26.366Z,0.70
2023-02-18T22:07:29.586Z,0.90
2023-02-18T22:12:34.015Z,2.20
2023-02-18T22:17:35.856Z,1.00
2023-02-18T22:22:37.576Z,1.50
2023-02-18T22:27:39.324Z,2.40
2023-02-18T22:32:41.764Z,4.30
2023-02-18T22:37:43.453Z,3.60
2023-02-18T22:42:45.172Z,2.20
2023-02-18T22:47:49.872Z,2.90
2023-02-18T22:52:51.676Z,4.10
2023-02-18T22:57:53.384Z,4.30
2023-02-18T23:02:55.221Z,2.60
2023-02-18T23:07:57.565Z,3.20
2023-02-18T23:12:59.318Z,2.60
2023-02-18T23:18:19.942Z,2.70
2023-02-18T23:23:21.730Z,2.00
2023-02-18T23:28:23.573Z,1.20
2023-02-18T23:33:25.392Z,1.60
2023-02-18T23:38:27.088Z,4.60
2023-02-18T23:43:31.721Z,1.20
2023-02-18T23:48:38.397Z,2.90
2023-02-18T23:53:40.344Z,3.40
2023-02-18T23:58:44.674Z,2.80
